Time,TemperatureF,DewpointF,PressureIn,WindDirection,WindDirectionDegrees,WindSpeedMPH,WindSpeedGustMPH,Humidity,HourlyPrecipIn,Conditions,Clouds,dailyrainin,SolarRadiationWatts/m^2,SoftwareType,DateUTC
2013-12-21 00:02:00,18.2,13.9,29.94,NNE,28,0.0,0.0,83,0.00,,,0.00,0,Wunderground v.1.15,2013-12-21 06:02:00,
2013-12-21 00:07:00,18.3,14.0,29.95,NNE,28,0.0,0.0,83,0.00,,,0.00,0,Wunderground v.1.15,2013-12-21 06:07:00,
2013-12-21 00:12:00,18.3,14.0,29.95,NNE,28,0.0,0.0,83,0.00,,,0.00,0,Wunderground v.1.15,2013-12-21 06:12:00,
2013-12-21 00:17:00,18.3,14.0,29.95,NNE,28,0.0,0.0,83,0.00,,,0.00,0,Wunderground v.1.15,2013-12-21 06:17:00,
2013-12-21 00:22:00,18.3,14.0,29.95,NNE,28,0.0,0.0,83,0.00,,,0.00,0,Wunderground v.1.15,2013-12-21 06:22:00,
2013-12-21 00:28:00,18.4,14.1,29.94,NNE,28,0.0,0.0,83,0.00,,,0.00,0,Wunderground v.1.15,2013-12-21 06:28:00,
2013-12-21 00:33:00,18.4,14.1,29.94,NNE,28,0.0,0.0,83,0.00,,,0.00,0,Wunderground v.1.15,2013-12-21 06:33:00,
2013-12-21 00:36:00,18.5,14.2,29.94,NNE,28,0.0,0.0,83,0.00,,,0.00,0,Wunderground v.1.15,2013-12-21 06:36:00,
2013-12-21 00:42:00,18.5,14.2,29.94,NNE,28,0.0,0.0,83,0.00,,,0.00,0,Wunderground v.1.15,2013-12-21 06:42:00,
2013-12-21 00:47:00,18.6,14.0,29.95,NNE,28,0.0,0.0,82,0.00,,,0.00,0,Wunderground v.1.15,2013-12-21 06:47:00,
2013-12-21 00:52:00,18.6,14.0,29.95,NNE,28,0.0,0.0,82,0.00,,,0.00,0,Wunderground v.1.15,2013-12-21 06:52:00,
2013-12-21 00:58:00,18.5,13.9,29.95,NNE,28,0.0,0.0,82,0.00,,,0.00,0,Wunderground v.1.15,2013-12-21 06:58:00,
2013-12-21 01:03:00,18.5,13.9,29.95,NNE,28,0.0,0.0,82,0.00,,,0.00,0,Wunderground v.1.15,2013-12-21 07:03:00,
2013-12-21 01:08:00,18.5,13.9,29.95,NNE,28,0.0,0.0,82,0.00,,,0.00,0,Wunderground v.1.15,2013-12-21 07:08:00,
2013-12-21 01:13:00,18.5,13.9,29.95,NNE,28,0.0,0.0,82,0.00,,,0.00,0,Wunderground v.1.15,2013-12-21 07:13:00,
2013-12-21 01:18:00,18.5,13.9,29.95,NNE,28,0.0,0.0,82,0.00,,,0.00,0,Wunderground v.1.15,2013-12-21 07:18:00,
2013-12-21 01:24:00,18.6,14.3,29.95,NNE,28,0.0,0.0,83,0.00,,,0.00,0,Wunderground v.1.15,2013-12-21 07:24:00,
2013-12-21 01:29:00,18.7,14.4,29.95,NNE,28,0.0,0.0,83,0.00,,,0.00,0,Wunderground v.1.15,2013-12-21 07:29:00,
2013-12-21 01:34:00,18.8,14.5,29.95,NNE,28,0.0,0.0,83,0.00,,,0.00,0,Wunderground v.1.15,2013-12-21 07:34:00,
2013-12-21 01:39:00,18.8,14.5,29.95,NNE,28,0.0,0.0,83,0.00,,,0.00,0,Wunderground v.1.15,2013-12-21 07:39:00,
2013-12-21 01:44:00,18.8,14.5,29.95,NNE,28,0.0,1.0,83,0.00,,,0.00,0,Wunderground v.1.15,2013-12-21 07:44:00,
2013-12-21 01:49:00,18.8,14.2,29.95,NNE,28,1.0,1.0,82,0.00,,,0.00,0,Wunderground v.1.15,2013-12-21 07:49:00,
2013-12-21 01:55:00,18.7,14.1,29.95,NNE,28,1.0,2.0,82,0.00,,,0.00,0,Wunderground v.1.15,2013-12-21 07:55:00,
2013-12-21 02:00:00,18.6,14.0,29.95,NNE,27,0.0,1.0,82,0.00,,,0.00,0,Wunderground v.1.15,2013-12-21 08:00:00,
2013-12-21 02:05:00,18.6,14.0,29.95,NNE,28,0.0,1.0,82,0.00,,,0.00,0,Wunderground v.1.15,2013-12-21 08:05:00,
2013-12-21 02:11:00,18.6,14.0,29.96,NNE,28,0.0,0.0,82,0.00,,,0.00,0,Wunderground v.1.15,2013-12-21 08:11:00,
2013-12-21 02:16:00,18.6,14.0,29.96,NNE,28,0.0,0.0,82,0.00,,,0.00,0,Wunderground v.1.15,2013-12-21 08:16:00,
2013-12-21 02:21:00,18.6,14.0,29.96,NNE,27,0.0,0.0,82,0.00,,,0.00,0,Wunderground v.1.15,2013-12-21 08:21:00,
2013-12-21 02:26:00,18.6,14.0,29.96,NNE,27,2.0,2.0,82,0.00,,,0.00,0,Wunderground v.1.15,2013-12-21 08:26:00,
2013-12-21 02:31:00,18.6,14.0,29.97,NNE,23,1.0,1.0,82,0.00,,,0.00,0,Wunderground v.1.15,2013-12-21 08:31:00,
2013-12-21 02:36:00,18.6,14.0,29.97,North,11,0.0,3.0,82,0.00,,,0.00,0,Wunderground v.1.15,2013-12-21 08:36:00,
2013-12-21 02:41:00,18.5,13.6,29.97,North,11,0.0,1.0,81,0.00,,,0.00,0,Wunderground v.1.15,2013-12-21 08:41:00,
2013-12-21 02:46:00,18.5,13.6,29.97,North,11,1.0,2.0,81,0.00,,,0.00,0,Wunderground v.1.15,2013-12-21 08:46:00,
2013-12-21 02:51:00,18.5,13.6,29.97,North,11,0.0,1.0,81,0.00,,,0.00,0,Wunderground v.1.15,2013-12-21 08:51:00,
2013-12-21 02:56:00,18.5,13.6,29.97,North,11,0.0,2.0,81,0.00,,,0.00,0,Wunderground v.1.15,2013-12-21 08:56:00,
2013-12-21 03:01:00,18.5,13.6,29.97,North,11,1.0,2.0,81,0.00,,,0.00,0,Wunderground v.1.15,2013-12-21 09:01:00,
2013-12-21 03:06:00,18.5,13.6,29.96,North,11,1.0,2.0,81,0.00,,,0.00,0,Wunderground v.1.15,2013-12-21 09:06:00,
2013-12-21 03:11:00,18.5,13.6,29.97,North,11,0.0,1.0,81,0.00,,,0.00,0,Wunderground v.1.15,2013-12-21 09:11:00,
2013-12-21 03:16:00,18.5,13.6,29.97,North,11,0.0,1.0,81,0.00,,,0.00,0,Wunderground v.1.15,2013-12-21 09:16:00,
2013-12-21 03:21:00,18.4,13.8,29.97,North,11,0.0,0.0,82,0.00,,,0.00,0,Wunderground v.1.15,2013-12-21 09:21:00,
2013-12-21 03:26:00,18.5,13.9,29.96,North,11,0.0,0.0,82,0.00,,,0.00,0,Wunderground v.1.15,2013-12-21 09:26:00,
2013-12-21 03:31:00,18.5,13.9,29.96,North,11,0.0,0.0,82,0.00,,,0.00,0,Wunderground v.1.15,2013-12-21 09:31:00,
2013-12-21 03:36:00,18.5,13.9,29.97,North,11,1.0,2.0,82,0.00,,,0.00,0,Wunderground v.1.15,2013-12-21 09:36:00,
2013-12-21 03:41:00,18.4,13.8,29.97,North,11,0.0,0.0,82,0.00,,,0.00,0,Wunderground v.1.15,2013-12-21 09:41:00,
2013-12-21 03:46:00,18.4,13.8,29.96,North,11,0.0,0.0,82,0.00,,,0.00,0,Wunderground v.1.15,2013-12-21 09:46:00,
2013-12-21 03:51:00,18.3,13.7,29.96,North,11,0.0,0.0,82,0.00,,,0.00,0,Wunderground v.1.15,2013-12-21 09:51:00,
2013-12-21 03:56:00,18.3,13.7,29.97,North,11,0.0,0.0,82,0.00,,,0.00,0,Wunderground v.1.15,2013-12-21 09:56:00,
2013-12-21 04:01:00,18.2,13.6,29.97,North,11,0.0,0.0,82,0.00,,,0.00,0,Wunderground v.1.15,2013-12-21 10:01:00,
2013-12-21 04:06:00,18.2,13.6,29.96,North,11,0.0,1.0,82,0.00,,,0.00,0,Wunderground v.1.15,2013-12-21 10:06:00,
2013-12-21 04:11:00,18.2,13.6,29.96,North,11,1.0,1.0,82,0.00,,,0.00,0,Wunderground v.1.15,2013-12-21 10:11:00,
2013-12-21 04:16:00,18.2,13.6,29.96,North,11,0.0,1.0,82,0.00,,,0.00,0,Wunderground v.1.15,2013-12-21 10:16:00,
2013-12-21 04:22:00,18.2,13.6,29.96,North,11,0.0,0.0,82,0.00,,,0.00,0,Wunderground v.1.15,2013-12-21 10:22:00,
2013-12-21 04:27:00,18.2,13.6,29.96,North,11,0.0,0.0,82,0.00,,,0.00,0,Wunderground v.1.15,2013-12-21 10:27:00,
2013-12-21 04:32:00,18.2,13.6,29.96,North,11,0.0,0.0,82,0.00,,,0.00,0,Wunderground v.1.15,2013-12-21 10:32:00,
2013-12-21 04:37:00,18.3,13.7,29.96,North,11,0.0,0.0,82,0.00,,,0.00,0,Wunderground v.1.15,2013-12-21 10:37:00,
2013-12-21 04:42:00,18.2,13.6,29.96,North,11,0.0,0.0,82,0.00,,,0.00,0,Wunderground v.1.15,2013-12-21 10:42:00,
2013-12-21 04:47:00,18.1,13.5,29.96,North,11,0.0,0.0,82,0.00,,,0.00,0,Wunderground v.1.15,2013-12-21 10:47:00,
2013-12-21 04:52:00,18.1,13.5,29.95,North,11,0.0,0.0,82,0.00,,,0.00,0,Wunderground v.1.15,2013-12-21 10:52:00,
2013-12-21 04:57:00,18.1,13.5,29.95,North,11,0.0,0.0,82,0.00,,,0.00,0,Wunderground v.1.15,2013-12-21 10:57:00,
2013-12-21 05:02:00,18.1,13.5,29.96,North,11,0.0,0.0,82,0.00,,,0.00,0,Wunderground v.1.15,2013-12-21 11:02:00,
2013-12-21 05:07:00,18.0,13.4,29.96,North,11,0.0,1.0,82,0.00,,,0.00,0,Wunderground v.1.15,2013-12-21 11:07:00,
2013-12-21 05:12:00,18.0,13.4,29.96,North,11,0.0,0.0,82,0.00,,,0.00,0,Wunderground v.1.15,2013-12-21 11:12:00,
2013-12-21 05:17:00,18.0,13.4,29.96,North,11,0.0,2.0,82,0.00,,,0.00,0,Wunderground v.1.15,2013-12-21 11:17:00,
2013-12-21 05:22:00,18.0,13.4,29.96,North,11,0.0,0.0,82,0.00,,,0.00,0,Wunderground v.1.15,2013-12-21 11:22:00,
2013-12-21 05:27:00,18.0,13.4,29.95,North,11,2.0,3.0,82,0.00,,,0.00,0,Wunderground v.1.15,2013-12-21 11:27:00,
2013-12-21 05:32:00,17.9,13.3,29.95,NNE,13,0.0,2.0,82,0.00,,,0.00,0,Wunderground v.1.15,2013-12-21 11:32:00,
2013-12-21 05:37:00,17.8,13.2,29.95,NNE,14,0.0,3.0,82,0.00,,,0.00,0,Wunderground v.1.15,2013-12-21 11:37:00,
2013-12-21 05:42:00,17.7,13.1,29.96,NNE,14,0.0,2.0,82,0.00,,,0.00,0,Wunderground v.1.15,2013-12-21 11:42:00,
2013-12-21 05:47:00,17.6,13.0,29.96,NNE,14,3.0,3.0,82,0.00,,,0.00,0,Wunderground v.1.15,2013-12-21 11:47:00,
2013-12-21 05:52:00,17.6,13.0,29.96,NNE,16,4.0,4.0,82,0.00,,,0.00,0,Wunderground v.1.15,2013-12-21 11:52:00,
2013-12-21 05:57:00,17.5,12.9,29.96,NNE,15,3.0,4.0,82,0.00,,,0.00,0,Wunderground v.1.15,2013-12-21 11:57:00,
2013-12-21 06:02:00,17.6,13.0,29.96,NNE,15,2.0,3.0,82,0.00,,,0.00,0,Wunderground v.1.15,2013-12-21 12:02:00,
2013-12-21 06:07:00,17.5,12.9,29.95,NNE,15,0.0,3.0,82,0.00,,,0.00,0,Wunderground v.1.15,2013-12-21 12:07:00,
2013-12-21 06:12:00,17.5,12.9,29.94,NNE,15,0.0,2.0,82,0.00,,,0.00,0,Wunderground v.1.15,2013-12-21 12:12:00,
2013-12-21 06:17:00,17.4,12.8,29.95,NNE,16,0.0,3.0,82,0.00,,,0.00,0,Wunderground v.1.15,2013-12-21 12:17:00,
2013-12-21 06:22:00,17.5,12.9,29.95,NNE,17,0.0,2.0,82,0.00,,,0.00,0,Wunderground v.1.15,2013-12-21 12:22:00,
2013-12-21 06:27:00,17.4,12.6,29.96,NNE,17,1.0,5.0,81,0.00,,,0.00,0,Wunderground v.1.15,2013-12-21 12:27:00,
2013-12-21 06:32:00,17.4,12.6,29.96,NNE,19,3.0,3.0,81,0.00,,,0.00,0,Wunderground v.1.15,2013-12-21 12:32:00,
2013-12-21 06:37:00,17.3,12.5,29.97,NNE,19,0.0,3.0,81,0.00,,,0.00,0,Wunderground v.1.15,2013-12-21 12:37:00,
2013-12-21 06:42:00,17.3,12.7,29.98,NNE,19,0.0,1.0,82,0.00,,,0.00,0,Wunderground v.1.15,2013-12-21 12:42:00,
2013-12-21 06:47:00,17.3,12.7,29.99,NNE,19,0.0,2.0,82,0.00,,,0.00,0,Wunderground v.1.15,2013-12-21 12:47:00,
2013-12-21 06:52:00,17.3,12.5,29.99,NNE,19,0.0,0.0,81,0.00,,,0.00,0,Wunderground v.1.15,2013-12-21 12:52:00,
2013-12-21 06:57:00,17.4,12.8,29.99,NNE,19,0.0,0.0,82,0.00,,,0.00,0,Wunderground v.1.15,2013-12-21 12:57:00,
2013-12-21 07:02:00,17.4,12.6,29.99,NNE,19,0.0,0.0,81,0.00,,,0.00,0,Wunderground v.1.15,2013-12-21 13:02:00,
2013-12-21 07:08:00,17.4,12.6,29.98,NNE,19,0.0,0.0,81,0.00,,,0.00,0,Wunderground v.1.15,2013-12-21 13:08:00,
2013-12-21 07:13:00,17.4,12.6,29.99,NNE,19,0.0,0.0,81,0.00,,,0.00,0,Wunderground v.1.15,2013-12-21 13:13:00,
2013-12-21 07:17:00,17.4,12.6,29.99,NNE,19,0.0,0.0,81,0.00,,,0.00,0,Wunderground v.1.15,2013-12-21 13:17:00,
2013-12-21 07:23:00,17.3,12.5,29.98,NNE,19,0.0,0.0,81,0.00,,,0.00,0,Wunderground v.1.15,2013-12-21 13:23:00,
2013-12-21 07:28:00,17.3,12.5,29.98,NNE,19,0.0,0.0,81,0.00,,,0.00,0,Wunderground v.1.15,2013-12-21 13:28:00,
2013-12-21 07:33:00,17.3,12.5,29.99,NNE,19,0.0,0.0,81,0.00,,,0.00,0,Wunderground v.1.15,2013-12-21 13:33:00,
2013-12-21 07:38:00,17.3,12.5,29.99,NNE,19,0.0,0.0,81,0.00,,,0.00,0,Wunderground v.1.15,2013-12-21 13:38:00,
2013-12-21 07:43:00,17.4,12.6,29.99,NNE,19,0.0,0.0,81,0.00,,,0.00,0,Wunderground v.1.15,2013-12-21 13:43:00,
2013-12-21 07:48:00,17.4,12.6,30.00,NNE,19,0.0,0.0,81,0.00,,,0.00,0,Wunderground v.1.15,2013-12-21 13:48:00,
2013-12-21 07:53:00,17.4,12.6,29.99,NNE,19,0.0,0.0,81,0.00,,,0.00,0,Wunderground v.1.15,2013-12-21 13:53:00,
2013-12-21 07:58:00,17.5,12.7,29.99,NNE,19,0.0,0.0,81,0.00,,,0.00,0,Wunderground v.1.15,2013-12-21 13:58:00,
2013-12-21 08:03:00,17.5,12.7,29.99,NNE,18,0.0,0.0,81,0.00,,,0.00,5,Wunderground v.1.15,2013-12-21 14:03:00,
2013-12-21 08:08:00,17.6,12.8,30.00,NNE,19,0.0,0.0,81,0.00,,,0.00,7,Wunderground v.1.15,2013-12-21 14:08:00,
2013-12-21 08:13:00,17.6,12.8,30.00,NNE,19,0.0,0.0,81,0.00,,,0.00,11,Wunderground v.1.15,2013-12-21 14:13:00,
2013-12-21 08:18:00,17.7,12.9,30.00,NNE,19,0.0,1.0,81,0.00,,,0.00,16,Wunderground v.1.15,2013-12-21 14:18:00,
2013-12-21 08:23:00,17.8,13.0,30.01,NNE,19,0.0,0.0,81,0.00,,,0.00,21,Wunderground v.1.15,2013-12-21 14:23:00,
2013-12-21 08:28:00,17.9,13.1,30.01,NNE,19,1.0,1.0,81,0.00,,,0.00,26,Wunderground v.1.15,2013-12-21 14:28:00,
2013-12-21 08:33:00,17.9,13.1,30.01,NNE,18,0.0,1.0,81,0.00,,,0.00,32,Wunderground v.1.15,2013-12-21 14:33:00,
2013-12-21 08:38:00,18.0,13.2,30.01,NNE,19,0.0,1.0,81,0.00,,,0.00,35,Wunderground v.1.15,2013-12-21 14:38:00,
2013-12-21 08:43:00,18.0,12.9,30.02,NNE,18,0.0,0.0,80,0.00,,,0.00,42,Wunderground v.1.15,2013-12-21 14:43:00,
2013-12-21 08:48:00,18.1,13.0,30.02,NNE,19,0.0,1.0,80,0.00,,,0.00,58,Wunderground v.1.15,2013-12-21 14:48:00,
2013-12-21 08:53:00,18.1,13.0,30.02,NNE,19,0.0,0.0,80,0.00,,,0.00,47,Wunderground v.1.15,2013-12-21 14:53:00,
2013-12-21 08:58:00,18.1,13.0,30.03,NNE,19,0.0,0.0,80,0.00,,,0.00,42,Wunderground v.1.15,2013-12-21 14:58:00,
2013-12-21 09:03:00,18.1,13.0,30.03,NNE,19,0.0,0.0,80,0.00,,,0.00,53,Wunderground v.1.15,2013-12-21 15:03:00,
2013-12-21 09:08:00,18.1,13.0,30.02,NNE,19,0.0,2.0,80,0.00,,,0.00,65,Wunderground v.1.15,2013-12-21 15:08:00,
2013-12-21 09:13:00,18.2,13.1,30.03,NNE,19,0.0,2.0,80,0.00,,,0.00,70,Wunderground v.1.15,2013-12-21 15:13:00,
2013-12-21 09:18:00,18.3,13.2,30.02,NNE,19,0.0,2.0,80,0.00,,,0.00,79,Wunderground v.1.15,2013-12-21 15:18:00,
2013-12-21 09:23:00,18.4,13.3,30.03,NNE,19,0.0,0.0,80,0.00,,,0.00,98,Wunderground v.1.15,2013-12-21 15:23:00,
2013-12-21 09:28:00,18.5,13.4,30.03,NNE,19,0.0,0.0,80,0.00,,,0.00,77,Wunderground v.1.15,2013-12-21 15:28:00,
2013-12-21 09:33:00,18.6,13.2,30.03,NNE,19,0.0,2.0,79,0.00,,,0.00,88,Wunderground v.1.15,2013-12-21 15:33:00,
2013-12-21 09:38:00,18.6,13.2,30.04,NNE,19,0.0,2.0,79,0.00,,,0.00,81,Wunderground v.1.15,2013-12-21 15:38:00,
2013-12-21 09:43:00,18.7,13.3,30.04,NNE,19,0.0,1.0,79,0.00,,,0.00,62,Wunderground v.1.15,2013-12-21 15:43:00,
2013-12-21 09:48:00,18.7,13.3,30.03,NNE,19,0.0,2.0,79,0.00,,,0.00,97,Wunderground v.1.15,2013-12-21 15:48:00,
2013-12-21 09:53:00,18.9,13.5,30.04,NNE,19,1.0,1.0,79,0.00,,,0.00,83,Wunderground v.1.15,2013-12-21 15:53:00,
2013-12-21 09:58:00,19.0,13.6,30.04,NNE,19,0.0,2.0,79,0.00,,,0.00,72,Wunderground v.1.15,2013-12-21 15:58:00,
2013-12-21 10:03:00,19.1,13.7,30.04,NNE,19,0.0,1.0,79,0.00,,,0.00,47,Wunderground v.1.15,2013-12-21 16:03:00,
2013-12-21 10:08:00,19.1,13.4,30.03,NNE,19,1.0,3.0,78,0.00,,,0.00,53,Wunderground v.1.15,2013-12-21 16:08:00,
2013-12-21 10:13:00,19.2,13.8,30.02,NNE,19,0.0,3.0,79,0.00,,,0.00,84,Wunderground v.1.15,2013-12-21 16:13:00,
2013-12-21 10:19:00,19.4,13.7,30.02,NNE,19,0.0,3.0,78,0.00,,,0.00,98,Wunderground v.1.15,2013-12-21 16:19:00,
2013-12-21 10:23:00,19.4,13.7,30.02,NNE,21,3.0,4.0,78,0.00,,,0.00,128,Wunderground v.1.15,2013-12-21 16:23:00,
2013-12-21 10:28:00,19.4,13.7,30.00,NNE,27,2.0,5.0,78,0.00,,,0.00,125,Wunderground v.1.15,2013-12-21 16:28:00,
2013-12-21 10:33:00,19.5,13.8,30.01,NNE,28,3.0,5.0,78,0.00,,,0.00,130,Wunderground v.1.15,2013-12-21 16:33:00,
2013-12-21 10:38:00,19.7,14.0,30.02,NNE,28,2.0,5.0,78,0.00,,,0.00,123,Wunderground v.1.15,2013-12-21 16:38:00,
2013-12-21 10:43:00,19.9,14.1,30.01,NNE,28,1.0,1.0,78,0.00,,,0.00,153,Wunderground v.1.15,2013-12-21 16:43:00,
2013-12-21 10:48:00,20.1,14.3,30.02,NNE,28,0.0,3.0,78,0.00,,,0.00,169,Wunderground v.1.15,2013-12-21 16:48:00,
2013-12-21 10:53:00,20.3,14.5,30.04,NNE,28,0.0,1.0,78,0.00,,,0.00,239,Wunderground v.1.15,2013-12-21 16:53:00,
2013-12-21 10:58:00,20.7,14.9,30.05,NNE,28,1.0,3.0,78,0.00,,,0.00,243,Wunderground v.1.15,2013-12-21 16:58:00,
2013-12-21 11:03:00,20.8,14.7,30.05,NNE,30,2.0,3.0,77,0.00,,,0.00,179,Wunderground v.1.15,2013-12-21 17:03:00,
2013-12-21 11:08:00,20.9,14.8,30.06,NNE,30,0.0,3.0,77,0.00,,,0.00,178,Wunderground v.1.15,2013-12-21 17:08:00,
2013-12-21 11:13:00,21.3,15.2,30.04,NNE,30,1.0,3.0,77,0.00,,,0.00,162,Wunderground v.1.15,2013-12-21 17:13:00,
2013-12-21 11:18:00,21.4,15.3,30.03,NNE,27,2.0,5.0,77,0.00,,,0.00,183,Wunderground v.1.15,2013-12-21 17:18:00,
2013-12-21 11:23:00,21.5,15.1,30.03,NNE,26,2.0,4.0,76,0.00,,,0.00,171,Wunderground v.1.15,2013-12-21 17:23:00,
2013-12-21 11:28:00,21.4,15.0,30.02,NNE,27,2.0,4.0,76,0.00,,,0.00,193,Wunderground v.1.15,2013-12-21 17:28:00,
2013-12-21 11:33:00,21.4,15.3,30.01,NNE,22,2.0,4.0,77,0.00,,,0.00,244,Wunderground v.1.15,2013-12-21 17:33:00,
2013-12-21 11:38:00,21.5,15.4,30.01,North,5,5.0,7.0,77,0.00,,,0.00,223,Wunderground v.1.15,2013-12-21 17:38:00,
2013-12-21 11:43:00,21.6,15.5,30.00,NNE,12,5.0,6.0,77,0.00,,,0.00,227,Wunderground v.1.15,2013-12-21 17:43:00,
2013-12-21 11:48:00,21.6,15.5,30.00,NNE,12,3.0,10.0,77,0.00,,,0.00,260,Wunderground v.1.15,2013-12-21 17:48:00,
2013-12-21 11:54:00,21.6,15.5,30.00,NNE,21,4.0,10.0,77,0.00,,,0.00,183,Wunderground v.1.15,2013-12-21 17:54:00,
2013-12-21 11:59:00,21.7,15.6,30.00,NNW,346,7.0,10.0,77,0.00,,,0.00,163,Wunderground v.1.15,2013-12-21 17:59:00,
2013-12-21 12:04:00,21.6,15.2,29.99,NNW,344,1.0,3.0,76,0.00,,,0.00,183,Wunderground v.1.15,2013-12-21 18:04:00,
2013-12-21 12:09:00,21.6,15.2,29.99,NNW,344,1.0,3.0,76,0.00,,,0.00,183,Wunderground v.1.15,2013-12-21 18:09:00,
2013-12-21 12:14:00,-999.9,-99.9,30.00,North,32767,-999.0,1.0,255,-99.99,,,0.00,,Wunderground v.1.15,2013-12-21 18:14:00,
2013-12-21 12:19:00,-999.9,-99.9,30.01,North,32767,-999.0,1.0,255,-99.99,,,0.00,,Wunderground v.1.15,2013-12-21 18:19:00,
2013-12-21 12:24:00,-999.9,-99.9,30.01,North,32767,-999.0,-999.0,255,-99.99,,,0.00,,Wunderground v.1.15,2013-12-21 18:24:00,
2013-12-21 12:29:00,21.8,15.7,30.02,NNE,21,1.0,3.0,77,0.00,,,0.00,181,Wunderground v.1.15,2013-12-21 18:29:00,
2013-12-21 12:34:00,21.9,15.5,30.03,NNE,23,0.0,1.0,76,0.00,,,0.00,178,Wunderground v.1.15,2013-12-21 18:34:00,
2013-12-21 12:39:00,22.0,15.9,30.02,NNE,23,0.0,3.0,77,0.00,,,0.00,151,Wunderground v.1.15,2013-12-21 18:39:00,
2013-12-21 12:44:00,22.1,16.0,30.03,NNE,22,2.0,4.0,77,0.00,,,0.00,142,Wunderground v.1.15,2013-12-21 18:44:00,
2013-12-21 12:49:00,22.2,16.1,30.04,NNE,22,2.0,4.0,77,0.00,,,0.00,128,Wunderground v.1.15,2013-12-21 18:49:00,
2013-12-21 12:54:00,22.3,15.9,30.03,NNE,22,0.0,2.0,76,0.00,,,0.00,120,Wunderground v.1.15,2013-12-21 18:54:00,
2013-12-21 12:59:00,22.4,16.3,30.04,NNE,22,0.0,2.0,77,0.00,,,0.00,141,Wunderground v.1.15,2013-12-21 18:59:00,
2013-12-21 13:04:00,22.5,16.1,30.04,NNE,22,0.0,0.0,76,0.00,,,0.00,125,Wunderground v.1.15,2013-12-21 19:04:00,
2013-12-21 13:09:00,22.6,16.2,30.04,NNE,22,2.0,3.0,76,0.00,,,0.00,127,Wunderground v.1.15,2013-12-21 19:09:00,
2013-12-21 13:14:00,22.6,16.2,30.02,NNE,22,2.0,3.0,76,0.00,,,0.00,148,Wunderground v.1.15,2013-12-21 19:14:00,
2013-12-21 13:19:00,22.5,16.1,30.03,NNE,22,0.0,3.0,76,0.00,,,0.00,148,Wunderground v.1.15,2013-12-21 19:19:00,
2013-12-21 13:24:00,22.6,16.2,30.03,NNE,22,0.0,3.0,76,0.00,,,0.00,146,Wunderground v.1.15,2013-12-21 19:24:00,
2013-12-21 13:29:00,22.7,16.6,30.02,NNE,22,1.0,3.0,77,0.00,,,0.00,155,Wunderground v.1.15,2013-12-21 19:29:00,
2013-12-21 13:34:00,22.9,16.5,30.03,NNE,22,0.0,2.0,76,0.00,,,0.00,149,Wunderground v.1.15,2013-12-21 19:34:00,
2013-12-21 13:39:00,22.9,16.5,30.03,NNE,22,0.0,2.0,76,0.00,,,0.00,118,Wunderground v.1.15,2013-12-21 19:39:00,
2013-12-21 13:44:00,23.0,16.6,30.03,NNE,22,0.0,3.0,76,0.00,,,0.00,127,Wunderground v.1.15,2013-12-21 19:44:00,
2013-12-21 13:49:00,23.0,16.6,30.03,NNE,20,1.0,3.0,76,0.00,,,0.00,90,Wunderground v.1.15,2013-12-21 19:49:00,
2013-12-21 13:54:00,23.1,16.7,30.03,NNE,21,0.0,3.0,76,0.00,,,0.00,91,Wunderground v.1.15,2013-12-21 19:54:00,
2013-12-21 13:59:00,23.1,16.7,30.03,NNE,20,0.0,3.0,76,0.00,,,0.00,93,Wunderground v.1.15,2013-12-21 19:59:00,
2013-12-21 14:04:00,23.1,16.7,30.03,NNE,19,1.0,3.0,76,0.00,,,0.00,98,Wunderground v.1.15,2013-12-21 20:04:00,
2013-12-21 14:09:00,23.2,17.1,30.03,NNE,19,2.0,3.0,77,0.00,,,0.00,97,Wunderground v.1.15,2013-12-21 20:09:00,
2013-12-21 14:14:00,23.2,16.8,30.02,NNE,19,0.0,3.0,76,0.00,,,0.00,90,Wunderground v.1.15,2013-12-21 20:14:00,
2013-12-21 14:20:00,23.2,17.1,30.02,NNE,19,2.0,4.0,77,0.00,,,0.00,88,Wunderground v.1.15,2013-12-21 20:20:00,
2013-12-21 14:25:00,23.1,17.0,30.02,NNE,19,0.0,4.0,77,0.00,,,0.00,81,Wunderground v.1.15,2013-12-21 20:25:00,
2013-12-21 14:30:00,23.2,17.1,30.02,NNE,19,1.0,4.0,77,0.00,,,0.00,81,Wunderground v.1.15,2013-12-21 20:30:00,
2013-12-21 14:35:00,23.2,17.1,30.02,NNE,19,1.0,3.0,77,0.00,,,0.00,62,Wunderground v.1.15,2013-12-21 20:35:00,
2013-12-21 14:40:00,23.2,17.1,30.02,NNE,18,3.0,4.0,77,0.00,,,0.00,54,Wunderground v.1.15,2013-12-21 20:40:00,
2013-12-21 14:45:00,23.1,16.7,30.02,NNE,18,2.0,3.0,76,0.00,,,0.00,62,Wunderground v.1.15,2013-12-21 20:45:00,
2013-12-21 14:50:00,23.0,16.9,30.02,NNE,19,2.0,4.0,77,0.00,,,0.00,58,Wunderground v.1.15,2013-12-21 20:50:00,
2013-12-21 14:55:00,23.0,16.9,30.02,NNE,19,0.0,2.0,77,0.00,,,0.00,54,Wunderground v.1.15,2013-12-21 20:55:00,
2013-12-21 15:00:00,22.9,16.8,30.03,NNE,19,0.0,3.0,77,0.00,,,0.00,54,Wunderground v.1.15,2013-12-21 21:00:00,
2013-12-21 15:05:00,23.0,16.9,30.02,NNE,19,4.0,7.0,77,0.00,,,0.00,53,Wunderground v.1.15,2013-12-21 21:05:00,
2013-12-21 15:10:00,22.8,16.7,30.01,NNE,16,0.0,7.0,77,0.00,,,0.00,53,Wunderground v.1.15,2013-12-21 21:10:00,
2013-12-21 15:15:00,22.9,17.1,30.02,North,355,4.0,6.0,78,0.00,,,0.00,49,Wunderground v.1.15,2013-12-21 21:15:00,
2013-12-21 15:20:00,22.8,17.0,30.02,North,9,3.0,7.0,78,0.00,,,0.00,39,Wunderground v.1.15,2013-12-21 21:20:00,
2013-12-21 15:25:00,22.9,17.1,30.03,North,5,4.0,4.0,78,0.00,,,0.00,37,Wunderground v.1.15,2013-12-21 21:25:00,
2013-12-21 15:30:00,22.8,17.0,30.03,North,5,3.0,9.0,78,0.00,,,0.00,37,Wunderground v.1.15,2013-12-21 21:30:00,
2013-12-21 15:35:00,22.7,16.9,30.04,North,360,2.0,8.0,78,0.00,,,0.00,33,Wunderground v.1.15,2013-12-21 21:35:00,
2013-12-21 15:40:00,22.7,16.9,30.05,North,5,2.0,8.0,78,0.00,,,0.00,33,Wunderground v.1.15,2013-12-21 21:40:00,
2013-12-21 15:45:00,22.7,16.9,30.05,North,360,2.0,4.0,78,0.00,,,0.00,30,Wunderground v.1.15,2013-12-21 21:45:00,
2013-12-21 15:50:00,22.7,16.9,30.05,North,9,0.0,9.0,78,0.00,,,0.00,26,Wunderground v.1.15,2013-12-21 21:50:00,
2013-12-21 15:55:00,22.7,16.9,30.04,North,9,0.0,6.0,78,0.00,,,0.00,19,Wunderground v.1.15,2013-12-21 21:55:00,
2013-12-21 16:00:00,22.6,17.1,30.04,North,9,0.0,6.0,79,0.00,,,0.00,18,Wunderground v.1.15,2013-12-21 22:00:00,
2013-12-21 16:05:00,22.6,17.1,30.04,North,9,0.0,2.0,79,0.00,,,0.00,14,Wunderground v.1.15,2013-12-21 22:05:00,
2013-12-21 16:10:00,22.6,17.1,30.05,North,10,0.0,1.0,79,0.00,,,0.00,12,Wunderground v.1.15,2013-12-21 22:10:00,
2013-12-21 16:16:00,22.5,17.0,30.04,NNE,13,2.0,8.0,79,0.00,,,0.00,9,Wunderground v.1.15,2013-12-21 22:16:00,
2013-12-21 16:21:00,22.4,16.9,30.04,NE,36,5.0,8.0,79,0.00,,,0.00,7,Wunderground v.1.15,2013-12-21 22:21:00,
2013-12-21 16:26:00,22.1,16.6,30.05,North,9,3.0,9.0,79,0.00,,,0.00,5,Wunderground v.1.15,2013-12-21 22:26:00,
2013-12-21 16:31:00,22.0,16.5,30.04,NNE,22,1.0,4.0,79,0.00,,,0.00,0,Wunderground v.1.15,2013-12-21 22:31:00,
2013-12-21 16:36:00,21.9,16.4,30.05,NNE,24,2.0,6.0,79,0.00,,,0.00,0,Wunderground v.1.15,2013-12-21 22:36:00,
2013-12-21 16:41:00,22.0,16.5,30.06,NNE,24,1.0,2.0,79,0.00,,,0.00,0,Wunderground v.1.15,2013-12-21 22:41:00,
2013-12-21 16:46:00,21.9,16.4,30.05,NNE,28,1.0,6.0,79,0.00,,,0.00,0,Wunderground v.1.15,2013-12-21 22:46:00,
2013-12-21 16:51:00,21.8,16.3,30.06,NE,42,0.0,3.0,79,0.00,,,0.00,0,Wunderground v.1.15,2013-12-21 22:51:00,
2013-12-21 16:56:00,21.8,16.3,30.06,NNE,26,1.0,6.0,79,0.00,,,0.00,0,Wunderground v.1.15,2013-12-21 22:56:00,
2013-12-21 17:01:00,21.7,16.2,30.06,NNE,28,0.0,2.0,79,0.00,,,0.00,0,Wunderground v.1.15,2013-12-21 23:01:00,
2013-12-21 17:06:00,21.7,16.2,30.05,NNE,28,1.0,7.0,79,0.00,,,0.00,0,Wunderground v.1.15,2013-12-21 23:06:00,
2013-12-21 17:11:00,21.6,16.4,30.05,NNE,17,3.0,8.0,80,0.00,,,0.00,0,Wunderground v.1.15,2013-12-21 23:11:00,
2013-12-21 17:16:00,21.5,16.3,30.05,NNE,26,2.0,8.0,80,0.00,,,0.00,0,Wunderground v.1.15,2013-12-21 23:16:00,
2013-12-21 17:21:00,21.5,16.3,30.04,North,9,6.0,7.0,80,0.00,,,0.00,0,Wunderground v.1.15,2013-12-21 23:21:00,
2013-12-21 17:26:00,21.4,16.2,30.05,NNE,14,0.0,9.0,80,0.00,,,0.00,0,Wunderground v.1.15,2013-12-21 23:26:00,
2013-12-21 17:31:00,21.3,16.1,30.05,NNE,18,0.0,7.0,80,0.00,,,0.00,0,Wunderground v.1.15,2013-12-21 23:31:00,
2013-12-21 17:36:00,21.3,16.1,30.05,NE,38,2.0,7.0,80,0.00,,,0.00,0,Wunderground v.1.15,2013-12-21 23:36:00,
2013-12-21 17:41:00,21.3,16.4,30.05,North,9,1.0,7.0,81,0.00,,,0.00,0,Wunderground v.1.15,2013-12-21 23:41:00,
2013-12-21 17:46:00,21.3,16.4,30.05,NE,34,6.0,9.0,81,0.00,,,0.00,0,Wunderground v.1.15,2013-12-21 23:46:00,
2013-12-21 17:51:00,21.1,16.2,30.05,NNE,30,5.0,7.0,81,0.00,,,0.00,0,Wunderground v.1.15,2013-12-21 23:51:00,
2013-12-21 17:56:00,21.1,16.2,30.05,NNE,24,1.0,7.0,81,0.00,,,0.00,0,Wunderground v.1.15,2013-12-21 23:56:00,
2013-12-21 18:01:00,21.0,16.1,30.04,NNE,33,4.0,5.0,81,0.00,,,0.00,0,Wunderground v.1.15,2013-12-22 00:01:00,
2013-12-21 18:06:00,20.9,16.0,30.05,NNE,22,5.0,6.0,81,0.00,,,0.00,0,Wunderground v.1.15,2013-12-22 00:06:00,
2013-12-21 18:11:00,20.9,16.0,30.05,NNE,22,0.0,4.0,81,0.00,,,0.00,0,Wunderground v.1.15,2013-12-22 00:11:00,
2013-12-21 18:16:00,20.8,15.9,30.05,NE,36,6.0,8.0,81,0.00,,,0.00,0,Wunderground v.1.15,2013-12-22 00:16:00,
2013-12-21 18:21:00,20.8,15.9,30.04,NNE,29,1.0,6.0,81,0.00,,,0.00,0,Wunderground v.1.15,2013-12-22 00:21:00,
2013-12-21 18:26:00,20.8,15.9,30.04,NE,39,5.0,8.0,81,0.00,,,0.00,0,Wunderground v.1.15,2013-12-22 00:26:00,
2013-12-21 18:31:00,20.7,16.1,30.05,NNE,28,6.0,6.0,82,0.00,,,0.00,0,Wunderground v.1.15,2013-12-22 00:31:00,
2013-12-21 18:36:00,20.7,16.1,30.06,NNE,21,0.0,8.0,82,0.00,,,0.00,0,Wunderground v.1.15,2013-12-22 00:36:00,
2013-12-21 18:41:00,20.8,16.2,30.06,NNE,21,0.0,2.0,82,0.00,,,0.00,0,Wunderground v.1.15,2013-12-22 00:41:00,
2013-12-21 18:46:00,20.8,16.2,30.06,NNE,22,0.0,2.0,82,0.00,,,0.00,0,Wunderground v.1.15,2013-12-22 00:46:00,
2013-12-21 18:51:00,20.8,16.2,30.07,NNE,22,1.0,5.0,82,0.00,,,0.00,0,Wunderground v.1.15,2013-12-22 00:51:00,
2013-12-21 18:56:00,20.9,16.3,30.06,NNE,21,1.0,5.0,82,0.00,,,0.00,0,Wunderground v.1.15,2013-12-22 00:56:00,
2013-12-21 19:02:00,20.9,16.3,30.07,NNE,21,0.0,2.0,82,0.00,,,0.00,0,Wunderground v.1.15,2013-12-22 01:02:00,
2013-12-21 19:07:00,20.9,16.3,30.06,NNE,21,0.0,2.0,82,0.00,,,0.00,0,Wunderground v.1.15,2013-12-22 01:07:00,
2013-12-21 19:12:00,20.9,16.3,30.06,NNE,21,0.0,0.0,82,0.00,,,0.00,0,Wunderground v.1.15,2013-12-22 01:12:00,
2013-12-21 19:17:00,20.9,16.3,30.07,NNE,21,0.0,1.0,82,0.00,,,0.00,0,Wunderground v.1.15,2013-12-22 01:17:00,
2013-12-21 19:22:00,21.0,16.4,30.07,NNE,21,1.0,3.0,82,0.00,,,0.00,0,Wunderground v.1.15,2013-12-22 01:22:00,
2013-12-21 19:27:00,20.9,16.3,30.07,NNE,21,0.0,3.0,82,0.00,,,0.00,0,Wunderground v.1.15,2013-12-22 01:27:00,
2013-12-21 19:32:00,21.0,16.4,30.07,NNE,20,0.0,0.0,82,0.00,,,0.00,0,Wunderground v.1.15,2013-12-22 01:32:00,
2013-12-21 19:37:00,21.0,16.4,30.08,NNE,20,0.0,3.0,82,0.00,,,0.00,0,Wunderground v.1.15,2013-12-22 01:37:00,
2013-12-21 19:42:00,21.1,16.5,30.07,NNE,22,0.0,2.0,82,0.00,,,0.00,0,Wunderground v.1.15,2013-12-22 01:42:00,
2013-12-21 19:47:00,21.1,16.5,30.07,NNE,22,3.0,6.0,82,0.00,,,0.00,0,Wunderground v.1.15,2013-12-22 01:47:00,
2013-12-21 19:52:00,21.1,16.5,30.06,NNE,31,4.0,9.0,82,0.00,,,0.00,0,Wunderground v.1.15,2013-12-22 01:52:00,
2013-12-21 19:57:00,21.1,16.5,30.07,NNE,22,1.0,10.0,82,0.00,,,0.00,0,Wunderground v.1.15,2013-12-22 01:57:00,
2013-12-21 20:02:00,21.1,16.5,30.07,North,10,6.0,8.0,82,0.00,,,0.00,0,Wunderground v.1.15,2013-12-22 02:02:00,
2013-12-21 20:07:00,21.1,16.2,30.07,NNE,14,1.0,12.0,81,0.00,,,0.00,0,Wunderground v.1.15,2013-12-22 02:07:00,
2013-12-21 20:12:00,21.1,16.2,30.07,NNE,15,2.0,7.0,81,0.00,,,0.00,0,Wunderground v.1.15,2013-12-22 02:12:00,
2013-12-21 20:17:00,21.1,16.5,30.06,North,5,1.0,7.0,82,0.00,,,0.00,0,Wunderground v.1.15,2013-12-22 02:17:00,
2013-12-21 20:22:00,21.0,16.4,30.06,North,11,2.0,6.0,82,0.00,,,0.00,0,Wunderground v.1.15,2013-12-22 02:22:00,
2013-12-21 20:27:00,20.7,16.1,30.05,NNE,14,6.0,10.0,82,0.00,,,0.00,0,Wunderground v.1.15,2013-12-22 02:27:00,
2013-12-21 20:32:00,20.5,15.9,30.05,North,5,10.0,10.0,82,0.00,,,0.00,0,Wunderground v.1.15,2013-12-22 02:32:00,
2013-12-21 20:37:00,20.2,15.6,30.05,North,5,8.0,10.0,82,0.00,,,0.00,0,Wunderground v.1.15,2013-12-22 02:37:00,
2013-12-21 20:42:00,20.0,15.4,30.05,North,5,7.0,11.0,82,0.00,,,0.00,0,Wunderground v.1.15,2013-12-22 02:42:00,
2013-12-21 20:47:00,19.9,15.3,30.04,NNE,15,8.0,14.0,82,0.00,,,0.00,0,Wunderground v.1.15,2013-12-22 02:47:00,
2013-12-21 20:52:00,19.8,15.2,30.04,North,11,8.0,9.0,82,0.00,,,0.00,0,Wunderground v.1.15,2013-12-22 02:52:00,
2013-12-21 20:57:00,19.7,15.4,30.04,North,9,4.0,10.0,83,0.00,,,0.00,0,Wunderground v.1.15,2013-12-22 02:57:00,
2013-12-21 21:02:00,19.6,15.3,30.04,North,9,5.0,11.0,83,0.00,,,0.00,0,Wunderground v.1.15,2013-12-22 03:02:00,
2013-12-21 21:07:00,19.5,14.9,30.04,North,360,8.0,14.0,82,0.00,,,0.00,0,Wunderground v.1.15,2013-12-22 03:07:00,
2013-12-21 21:12:00,19.3,14.7,30.04,North,9,7.0,8.0,82,0.00,,,0.00,0,Wunderground v.1.15,2013-12-22 03:12:00,
2013-12-21 21:17:00,19.0,14.7,30.04,NNE,12,6.0,14.0,83,0.00,,,0.00,0,Wunderground v.1.15,2013-12-22 03:17:00,
2013-12-21 21:22:00,18.8,14.5,30.03,NE,38,7.0,13.0,83,0.00,,,0.00,0,Wunderground v.1.15,2013-12-22 03:22:00,
2013-12-21 21:27:00,18.7,14.4,30.03,NE,43,9.0,13.0,83,0.00,,,0.00,0,Wunderground v.1.15,2013-12-22 03:27:00,
2013-12-21 21:32:00,18.5,14.2,30.04,NNE,29,8.0,11.0,83,0.00,,,0.00,0,Wunderground v.1.15,2013-12-22 03:32:00,
2013-12-21 21:37:00,18.4,14.1,30.03,NE,44,5.0,11.0,83,0.00,,,0.00,0,Wunderground v.1.15,2013-12-22 03:37:00,
2013-12-21 21:42:00,18.4,14.1,30.03,NNE,32,8.0,10.0,83,0.00,,,0.00,0,Wunderground v.1.15,2013-12-22 03:42:00,
2013-12-21 21:47:00,18.4,14.1,30.03,NNE,17,7.0,10.0,83,0.00,,,0.00,0,Wunderground v.1.15,2013-12-22 03:47:00,
2013-12-21 21:52:00,18.2,13.9,30.02,NNE,19,3.0,8.0,83,0.00,,,0.00,0,Wunderground v.1.15,2013-12-22 03:52:00,
2013-12-21 21:57:00,18.0,13.7,30.03,North,11,2.0,9.0,83,0.00,,,0.00,0,Wunderground v.1.15,2013-12-22 03:57:00,
2013-12-21 22:02:00,17.9,13.6,30.03,NNE,28,3.0,6.0,83,0.00,,,0.00,0,Wunderground v.1.15,2013-12-22 04:02:00,
2013-12-21 22:07:00,17.6,13.3,30.03,NNE,18,8.0,14.0,83,0.00,,,0.00,0,Wunderground v.1.15,2013-12-22 04:07:00,
2013-12-21 22:12:00,17.4,13.1,30.03,NE,38,9.0,10.0,83,0.00,,,0.00,0,Wunderground v.1.15,2013-12-22 04:12:00,
2013-12-21 22:17:00,17.2,12.9,30.04,NNW,348,7.0,10.0,83,0.00,,,0.00,0,Wunderground v.1.15,2013-12-22 04:17:00,
2013-12-21 22:22:00,17.1,13.1,30.03,NNE,13,4.0,7.0,84,0.00,,,0.00,0,Wunderground v.1.15,2013-12-22 04:22:00,
2013-12-21 22:27:00,17.0,13.0,30.03,NNE,14,0.0,7.0,84,0.00,,,0.00,0,Wunderground v.1.15,2013-12-22 04:27:00,
2013-12-21 22:32:00,16.8,12.5,30.04,NNE,22,1.0,5.0,83,0.00,,,0.00,0,Wunderground v.1.15,2013-12-22 04:32:00,
2013-12-21 22:37:00,16.7,12.7,30.03,NNE,17,0.0,8.0,84,0.00,,,0.00,0,Wunderground v.1.15,2013-12-22 04:37:00,
2013-12-21 22:42:00,16.5,12.5,30.04,NNE,16,1.0,7.0,84,0.00,,,0.00,0,Wunderground v.1.15,2013-12-22 04:42:00,
2013-12-21 22:47:00,16.3,12.0,30.04,NNE,15,3.0,8.0,83,0.00,,,0.00,0,Wunderground v.1.15,2013-12-22 04:47:00,
2013-12-21 22:52:00,16.0,12.0,30.04,North,355,1.0,7.0,84,0.00,,,0.00,0,Wunderground v.1.15,2013-12-22 04:52:00,
2013-12-21 22:57:00,15.8,11.8,30.04,North,5,0.0,7.0,84,0.00,,,0.00,0,Wunderground v.1.15,2013-12-22 04:57:00,
2013-12-21 23:01:00,15.7,11.7,30.04,North,5,0.0,2.0,84,0.00,,,0.00,0,Wunderground v.1.15,2013-12-22 05:01:00,
2013-12-21 23:02:00,15.6,11.6,30.05,North,5,3.0,5.0,84,0.00,,,0.00,0,Wunderground v.1.15,2013-12-22 05:02:00,
2013-12-21 23:07:00,15.5,11.5,30.05,North,5,0.0,5.0,84,0.00,,,0.00,0,Wunderground v.1.15,2013-12-22 05:07:00,
2013-12-21 23:12:00,15.4,11.4,30.05,North,5,0.0,1.0,84,0.00,,,0.00,0,Wunderground v.1.15,2013-12-22 05:12:00,
2013-12-21 23:17:00,15.4,11.7,30.04,North,5,2.0,3.0,85,0.00,,,0.00,0,Wunderground v.1.15,2013-12-22 05:17:00,
2013-12-21 23:22:00,15.3,11.6,30.04,North,355,0.0,7.0,85,0.00,,,0.00,0,Wunderground v.1.15,2013-12-22 05:22:00,
2013-12-21 23:27:00,15.2,11.2,30.04,North,355,0.0,7.0,84,0.00,,,0.00,0,Wunderground v.1.15,2013-12-22 05:27:00,
2013-12-21 23:32:00,15.2,11.5,30.04,North,355,0.0,1.0,85,0.00,,,0.00,0,Wunderground v.1.15,2013-12-22 05:32:00,
2013-12-21 23:37:00,15.2,11.5,30.04,North,355,0.0,1.0,85,0.00,,,0.00,0,Wunderground v.1.15,2013-12-22 05:37:00,
2013-12-21 23:42:00,15.2,11.5,30.04,North,355,0.0,0.0,85,0.00,,,0.00,0,Wunderground v.1.15,2013-12-22 05:42:00,
2013-12-21 23:47:00,15.2,11.5,30.04,North,355,0.0,0.0,85,0.00,,,0.00,0,Wunderground v.1.15,2013-12-22 05:47:00,
2013-12-21 23:52:00,15.2,11.5,30.04,North,355,0.0,0.0,85,0.00,,,0.00,0,Wunderground v.1.15,2013-12-22 05:52:00,
2013-12-21 23:57:00,15.2,11.5,30.04,NNW,348,4.0,7.0,85,0.00,,,0.00,0,Wunderground v.1.15,2013-12-22 05:57:00,